Grenloch, New Jersey
Current Conditions -  °F | °C
As of 3:54 AM on Saturday 25 Oct 2014 (Local Time) from KPHL Reporting Station
Clear Clear  
Wind Chill: 51°   Ceiling: Unl
Heat Index: 51°   Visibility: 10mi
Dew Point: 36°   Wind: 0mph
Humidity: 56%   Direction: NA
Pressure: 29.91"   Gusts: NA
Location:  39.79°N, 75.06°W
Report Text: KPHL 250754Z 00000KT 10SM CLR 11/02 A2991 RMK AO2 SLP126 T01060022
Loading
Personal Weather Stations






























Interactive Weather Map
Tropical Storm Tracking
New forecast layout! Learn more

10-Day Weather Forecast

Advertisements
Track Severe Weather on mobile